Time;durP1;ratioP1;P1;durP2;ratioP2;P2;SDS_P1;SDS_P2;PMS_P1;PMS_P2;Temp;Humidity;BMP_temperature;BMP_pressure;BME280_temperature;BME280_humidity;BME280_pressure;Samples;Min_cycle;Max_cycle;Signal;HPM_P1;HPM_P2
2022/07/11 00:00:10;;;;;;;6.30;1.20;;;;;;;15.69;73.53;101491.56;5074189;28;20482;-70
2022/07/11 00:02:37;;;;;;;1.87;0.87;;;;;;;15.63;73.94;101490.06;5073871;28;20501;-71
2022/07/11 00:05:06;;;;;;;8.03;0.90;;;;;;;15.49;75.08;101486.59;5074116;28;20476;-72
2022/07/11 00:07:32;;;;;;;1.27;0.87;;;;;;;15.42;73.99;101489.75;5074003;28;20521;-71
2022/07/11 00:09:59;;;;;;;1.37;1.03;;;;;;;15.34;74.43;101487.78;5073719;28;20532;-71
2022/07/11 00:12:26;;;;;;;4.70;0.80;;;;;;;15.33;74.89;101483.44;5073873;28;20544;-71
2022/07/11 00:14:53;;;;;;;2.73;1.07;;;;;;;15.21;75.55;101492.19;5072931;28;20442;-71
2022/07/11 00:17:20;;;;;;;2.00;0.63;;;;;;;15.18;75.75;101486.53;5073836;28;20539;-71
2022/07/11 00:19:46;;;;;;;1.20;0.80;;;;;;;15.06;76.32;101485.19;5073823;28;21018;-71
2022/07/11 00:22:15;;;;;;;1.30;0.70;;;;;;;15.02;77.05;101488.84;5073669;28;20457;-71
2022/07/11 00:24:41;;;;;;;1.23;0.70;;;;;;;14.97;77.06;101487.03;5073714;28;20469;-71
2022/07/11 00:27:08;;;;;;;0.80;0.60;;;;;;;14.88;77.92;101484.22;5073745;28;20524;-71
2022/07/11 00:29:34;;;;;;;2.43;1.17;;;;;;;14.84;77.92;101482.44;5073343;28;20906;-71
2022/07/11 00:32:01;;;;;;;2.20;0.73;;;;;;;14.77;78.51;101479.31;5073546;28;20564;-71
2022/07/11 00:34:28;;;;;;;3.27;0.67;;;;;;;14.77;78.39;101480.09;5073506;28;20472;-71
2022/07/11 00:36:54;;;;;;;0.70;0.47;;;;;;;14.71;78.92;101481.34;5073502;28;20528;-71
2022/07/11 00:39:22;;;;;;;1.13;0.80;;;;;;;14.73;79.12;101475.56;5073499;28;20525;-71
2022/07/11 00:41:49;;;;;;;1.60;0.83;;;;;;;14.74;79.29;101479.91;5073456;28;20933;-71
2022/07/11 00:44:16;;;;;;;1.43;0.80;;;;;;;14.69;79.68;101480.03;5073440;28;20524;-71
2022/07/11 00:46:42;;;;;;;3.97;1.07;;;;;;;14.67;79.53;101472.16;5073417;28;20850;-71
2022/07/11 00:49:09;;;;;;;1.20;0.83;;;;;;;14.62;79.95;101475.00;5073102;28;20969;-71
2022/07/11 00:51:36;;;;;;;1.70;0.80;;;;;;;14.62;80.14;101475.81;5073344;28;20475;-71
2022/07/11 00:54:02;;;;;;;2.27;1.10;;;;;;;14.57;80.00;101466.94;5073345;28;20524;-71
2022/07/11 00:56:31;;;;;;;1.20;0.77;;;;;;;14.52;80.25;101475.19;5073126;28;20956;-71
2022/07/11 00:58:59;;;;;;;6.40;1.23;;;;;;;14.45;80.21;101472.88;5073313;28;20869;-72
2022/07/11 01:01:26;;;;;;;1.13;0.70;;;;;;;14.38;80.78;101475.19;5072922;28;20477;-71
2022/07/11 01:03:53;;;;;;;0.70;0.50;;;;;;;14.34;81.15;101474.19;5072903;28;20873;-71
2022/07/11 01:06:20;;;;;;;1.17;0.80;;;;;;;14.32;81.61;101463.59;5073173;28;20524;-71
2022/07/11 01:08:47;;;;;;;3.03;0.70;;;;;;;14.30;81.07;101467.75;5072902;28;20855;-71
2022/07/11 01:11:15;;;;;;;1.03;0.80;;;;;;;14.23;82.07;101470.88;5073095;28;20448;-71
2022/07/11 01:13:44;;;;;;;1.50;0.77;;;;;;;14.24;82.11;101463.50;5073171;28;20471;-71
2022/07/11 01:16:13;;;;;;;1.50;0.97;;;;;;;14.21;81.97;101478.56;5073048;28;20575;-71
2022/07/11 01:18:41;;;;;;;1.00;0.70;;;;;;;14.14;83.00;101469.97;5073111;28;20463;-71
2022/07/11 01:21:18;;;;;;;1.13;0.70;;;;;;;14.10;83.35;101461.59;5072682;28;20537;-71
2022/07/11 01:23:46;;;;;;;2.93;1.00;;;;;;;14.05;83.51;101471.78;5072996;28;20925;-71
2022/07/11 01:26:13;;;;;;;5.23;1.00;;;;;;;14.04;83.35;101470.97;5074684;28;20528;-72
2022/07/11 01:28:40;;;;;;;6.00;0.90;;;;;;;14.02;83.65;101475.09;5077127;28;20532;-73
2022/07/11 01:31:07;;;;;;;0.90;0.63;;;;;;;13.99;82.85;101471.09;5076707;28;20491;-72
2022/07/11 01:33:33;;;;;;;1.00;0.63;;;;;;;13.86;82.34;101469.97;5077028;28;20524;-72
2022/07/11 01:36:01;;;;;;;11.40;0.70;;;;;;;13.80;80.49;101471.16;5076908;28;20507;-73
2022/07/11 01:38:28;;;;;;;0.90;0.60;;;;;;;13.76;80.61;101470.13;5076837;28;20441;-72
2022/07/11 01:40:56;;;;;;;5.80;1.10;;;;;;;13.64;80.65;101483.44;5076895;28;20874;-72
2022/07/11 01:43:23;;;;;;;2.27;0.70;;;;;;;13.61;81.94;101478.59;5077061;28;20450;-73
2022/07/11 01:45:51;;;;;;;1.23;0.73;;;;;;;13.60;83.55;101474.25;5076824;28;20532;-73
2022/07/11 01:48:17;;;;;;;3.30;1.00;;;;;;;13.58;83.98;101469.09;5076008;28;20533;-72
2022/07/11 01:50:44;;;;;;;1.73;0.90;;;;;;;13.55;84.83;101464.28;5076699;28;20895;-72
2022/07/11 01:53:11;;;;;;;2.53;1.10;;;;;;;13.39;86.11;101465.63;5076558;28;20540;-72
2022/07/11 01:55:37;;;;;;;0.87;0.57;;;;;;;13.39;84.87;101476.53;5076174;28;20576;-72
2022/07/11 01:58:05;;;;;;;1.97;0.87;;;;;;;13.23;84.49;101465.06;5076547;28;20532;-73
2022/07/11 02:00:32;;;;;;;1.57;0.70;;;;;;;13.21;84.04;101464.53;5076492;28;20540;-72
2022/07/11 02:02:59;;;;;;;1.20;0.83;;;;;;;13.16;84.34;101461.09;5076084;28;20564;-71
2022/07/11 02:05:25;;;;;;;2.40;1.10;;;;;;;13.08;85.86;101468.00;5076267;28;20491;-72
2022/07/11 02:10:36;;;;;;;0.60;0.50;;;;;;;13.07;87.77;101469.13;5076037;28;20459;-70
2022/07/11 02:13:03;;;;;;;1.90;1.00;;;;;;;13.07;87.82;101471.84;5076074;28;20492;-72
2022/07/11 02:15:31;;;;;;;1.13;0.53;;;;;;;13.05;88.14;101466.69;5076001;28;20492;-72
2022/07/11 02:17:58;;;;;;;0.83;0.60;;;;;;;13.01;88.16;101476.53;5076092;28;20506;-72
2022/07/11 02:20:25;;;;;;;3.53;1.20;;;;;;;12.99;88.56;101477.94;5076102;28;20483;-71
2022/07/11 02:22:52;;;;;;;1.17;0.77;;;;;;;12.99;88.20;101469.78;5075959;28;20536;-72
2022/07/11 02:25:21;;;;;;;0.93;0.67;;;;;;;12.93;88.51;101469.06;5076290;28;20477;-72
2022/07/11 02:27:47;;;;;;;2.90;1.10;;;;;;;12.96;88.93;101486.69;5076319;28;20441;-71
2022/07/11 02:30:14;;;;;;;1.67;0.80;;;;;;;12.89;89.43;101473.47;5075619;28;20954;-71
2022/07/11 02:32:42;;;;;;;3.73;1.10;;;;;;;12.88;89.12;101472.66;5075860;28;20544;-71
2022/07/11 02:35:09;;;;;;;1.47;1.37;;;;;;;12.94;88.77;101475.31;5075918;28;20448;-71
2022/07/11 02:37:36;;;;;;;2.10;1.20;;;;;;;12.88;89.48;101480.81;5074752;28;20525;-71
2022/07/11 02:40:03;;;;;;;1.20;0.70;;;;;;;12.86;89.43;101485.72;5075758;28;20529;-71
2022/07/11 02:42:29;;;;;;;2.70;0.87;;;;;;;12.86;89.84;101480.28;5075616;28;20461;-72
2022/07/11 02:44:56;;;;;;;1.40;1.07;;;;;;;12.90;89.55;101474.28;5075737;28;20847;-71
2022/07/11 02:47:24;;;;;;;1.20;0.80;;;;;;;12.83;89.08;101480.06;5075656;28;20520;-71
2022/07/11 02:49:52;;;;;;;4.20;0.70;;;;;;;12.78;89.98;101486.38;5075645;28;20503;-71
2022/07/11 02:52:19;;;;;;;1.63;0.87;;;;;;;12.81;89.12;101483.09;5075431;28;20544;-71
2022/07/11 02:54:45;;;;;;;1.13;1.00;;;;;;;12.76;89.67;101491.31;5075522;28;20437;-71
2022/07/11 02:57:12;;;;;;;1.67;1.10;;;;;;;12.75;88.89;101495.16;5075390;28;20571;-74
2022/07/11 02:59:39;;;;;;;1.87;1.03;;;;;;;12.68;88.42;101494.69;5075194;28;21057;-75
2022/07/11 03:02:05;;;;;;;2.67;1.17;;;;;;;12.68;88.28;101494.69;5074956;28;20986;-73
2022/07/11 03:04:32;;;;;;;2.50;0.90;;;;;;;12.67;88.55;101495.00;5075345;28;20451;-76
2022/07/11 03:07:00;;;;;;;1.13;0.87;;;;;;;12.66;88.86;101493.34;5074943;28;20895;-72
2022/07/11 03:09:28;;;;;;;2.03;0.97;;;;;;;12.64;89.59;101490.94;5074869;28;20987;-72
2022/07/11 03:11:55;;;;;;;1.33;1.10;;;;;;;12.66;89.58;101502.34;5074998;28;20551;-72
2022/07/11 03:14:21;;;;;;;2.90;1.30;;;;;;;12.62;90.33;101504.84;5074649;28;20445;-72
2022/07/11 03:16:48;;;;;;;4.07;1.00;;;;;;;12.59;90.40;101491.00;5074802;28;20579;-71
2022/07/11 03:19:15;;;;;;;3.10;1.10;;;;;;;12.62;90.80;101504.03;5075077;28;20498;-72
2022/07/11 03:21:41;;;;;;;4.13;1.30;;;;;;;12.61;90.81;101505.91;5075178;28;20519;-71
2022/07/11 03:24:09;;;;;;;0.90;0.73;;;;;;;12.63;90.31;101501.00;5075188;28;20536;-72
2022/07/11 03:26:36;;;;;;;1.30;1.10;;;;;;;12.58;90.90;101500.28;5074915;28;20528;-72
2022/07/11 03:29:02;;;;;;;2.13;0.80;;;;;;;12.61;90.43;101499.66;5074803;28;20446;-72
2022/07/11 03:31:29;;;;;;;1.70;0.83;;;;;;;12.61;90.10;101502.38;5074413;28;20543;-71
2022/07/11 03:33:56;;;;;;;0.80;0.67;;;;;;;12.58;90.72;101501.06;5074424;28;20441;-72
2022/07/11 03:36:23;;;;;;;4.10;1.43;;;;;;;12.57;90.84;101501.34;5074641;28;20522;-72
2022/07/11 03:38:49;;;;;;;2.77;0.97;;;;;;;12.57;90.66;101498.63;5074352;28;20888;-72
2022/07/11 03:41:17;;;;;;;0.80;0.70;;;;;;;12.55;90.58;101495.41;5074522;28;20819;-72
2022/07/11 03:43:44;;;;;;;2.10;1.00;;;;;;;12.53;91.30;101497.63;5074204;28;20954;-72
2022/07/11 03:46:10;;;;;;;1.10;1.00;;;;;;;12.48;91.01;101497.66;5074543;28;20441;-72
2022/07/11 03:48:37;;;;;;;2.03;0.70;;;;;;;12.49;91.22;101491.97;5074353;28;20445;-72
2022/07/11 03:51:04;;;;;;;3.27;0.87;;;;;;;12.48;91.43;101494.94;5074289;28;20445;-72
2022/07/11 03:53:30;;;;;;;3.60;1.33;;;;;;;12.47;92.21;101501.50;5074347;28;20473;-72
2022/07/11 03:55:57;;;;;;;1.47;0.93;;;;;;;12.51;91.93;101487.03;5074202;28;20496;-72
2022/07/11 03:58:25;;;;;;;2.97;1.27;;;;;;;12.56;91.67;101500.53;5074212;28;20536;-72
2022/07/11 04:00:51;;;;;;;3.50;1.50;;;;;;;12.61;91.19;101494.22;5074109;28;20444;-71
2022/07/11 04:03:18;;;;;;;2.73;1.23;;;;;;;12.56;91.68;101497.81;5076956;28;20493;-72
2022/07/11 04:05:44;;;;;;;1.03;0.87;;;;;;;12.60;91.92;101498.06;5094206;28;20475;-72
2022/07/11 04:08:11;;;;;;;5.63;1.57;;;;;;;12.63;91.23;101500.19;5092092;28;20539;-72
2022/07/11 04:10:38;;;;;;;5.03;1.47;;;;;;;12.66;90.93;101502.34;5094047;28;20450;-71
2022/07/11 04:13:04;;;;;;;1.70;1.17;;;;;;;12.58;91.35;101500.28;5093873;28;20550;-72
2022/07/11 04:15:32;;;;;;;3.00;0.93;;;;;;;12.64;91.07;101501.81;5092805;28;20901;-72
2022/07/11 04:17:59;;;;;;;2.10;1.10;;;;;;;12.70;91.57;101507.97;5093720;28;20567;-72
2022/07/11 04:20:26;;;;;;;2.40;1.17;;;;;;;12.72;91.72;101503.88;5092189;28;20499;-72
2022/07/11 04:22:53;;;;;;;13.53;1.30;;;;;;;12.75;91.75;101505.19;5093899;28;21042;-72
2022/07/11 04:25:19;;;;;;;1.30;1.00;;;;;;;12.77;91.80;101495.66;5092777;28;20811;-72
2022/07/11 04:27:46;;;;;;;1.00;0.80;;;;;;;12.84;91.57;101500.75;5093700;28;20826;-72
2022/07/11 04:30:13;;;;;;;1.03;0.90;;;;;;;12.94;92.00;101503.31;5092783;28;20547;-71
2022/07/11 04:32:40;;;;;;;1.30;1.10;;;;;;;13.02;91.56;101497.22;5093836;28;20503;-72
2022/07/11 04:35:08;;;;;;;3.40;0.93;;;;;;;13.03;90.12;101495.28;5092284;28;20543;-73
2022/07/11 04:37:35;;;;;;;3.53;1.33;;;;;;;13.09;89.59;101499.53;5092515;28;20519;-72
2022/07/11 04:40:01;;;;;;;2.00;1.10;;;;;;;13.17;89.81;101498.88;5093532;28;21045;-71
2022/07/11 04:42:28;;;;;;;3.53;1.10;;;;;;;13.20;89.85;101505.66;5091829;28;20507;-71
2022/07/11 04:44:54;;;;;;;1.67;0.90;;;;;;;13.21;89.47;101502.63;5091630;28;21013;-71
2022/07/11 04:47:21;;;;;;;1.73;1.13;;;;;;;13.27;89.34;101506.91;5093328;28;20436;-71
2022/07/11 04:49:51;;;;;;;4.70;1.63;;;;;;;13.35;88.71;101511.66;5092346;28;21147;-71
2022/07/11 04:52:17;;;;;;;3.00;1.80;;;;;;;13.42;88.23;101507.78;5093509;28;20547;-71
2022/07/11 04:54:44;;;;;;;1.77;1.27;;;;;;;13.45;88.42;101513.41;5092308;28;20447;-71
2022/07/11 04:57:11;;;;;;;2.20;1.20;;;;;;;13.46;89.32;101516.94;5092476;28;20566;-71
2022/07/11 04:59:38;;;;;;;7.23;1.50;;;;;;;13.54;88.95;101513.53;5093505;28;20479;-71
2022/07/11 05:02:05;;;;;;;4.80;1.40;;;;;;;13.49;88.46;101519.88;5091746;28;20523;-71
2022/07/11 05:04:32;;;;;;;2.40;1.07;;;;;;;13.59;88.84;101513.47;5093474;28;20436;-71
2022/07/11 05:07:00;;;;;;;2.63;1.17;;;;;;;13.70;88.40;101514.91;5092483;28;20876;-74
2022/07/11 05:09:26;;;;;;;1.53;1.10;;;;;;;13.74;87.41;101510.47;5092342;28;20483;-74
2022/07/11 05:11:53;;;;;;;1.03;0.70;;;;;;;13.79;87.38;101512.31;5091029;28;20490;-74
2022/07/11 05:14:20;;;;;;;2.57;1.13;;;;;;;13.85;86.66;101519.28;5093395;28;20519;-74
2022/07/11 05:16:46;;;;;;;2.73;1.17;;;;;;;13.83;87.13;101522.31;5092420;28;20484;-74
2022/07/11 05:19:13;;;;;;;1.70;1.10;;;;;;;13.91;87.04;101522.72;5093057;28;20997;-73
2022/07/11 05:21:39;;;;;;;3.63;1.17;;;;;;;13.93;87.24;101523.22;5092527;28;20563;-73
2022/07/11 05:24:08;;;;;;;1.30;0.90;;;;;;;14.02;87.23;101524.16;5093279;28;20531;-74
2022/07/11 05:26:34;;;;;;;2.10;0.93;;;;;;;14.08;86.29;101531.13;5092029;28;20523;-74
2022/07/11 05:29:01;;;;;;;2.80;1.00;;;;;;;14.07;87.05;101537.66;5093300;28;20874;-74
2022/07/11 05:31:27;;;;;;;1.90;1.13;;;;;;;14.07;86.90;101530.28;5088925;28;20566;-78
2022/07/11 05:33:54;;;;;;;1.07;0.90;;;;;;;14.18;86.89;101541.03;5091551;28;20532;-75
2022/07/11 05:36:21;;;;;;;2.23;1.20;;;;;;;14.19;87.06;101537.19;5093143;28;20444;-76
2022/07/11 05:38:47;;;;;;;0.80;0.63;;;;;;;14.29;86.56;101543.22;5093123;28;20567;-76
2022/07/11 05:41:15;;;;;;;1.07;0.80;;;;;;;14.36;86.24;101538.19;5091954;28;20445;-73
2022/07/11 05:43:42;;;;;;;1.83;0.93;;;;;;;14.45;85.87;101545.66;5091781;28;20562;-71
2022/07/11 05:46:09;;;;;;;5.17;1.30;;;;;;;14.48;85.85;101545.91;5093054;28;20483;-72
2022/07/11 05:48:35;;;;;;;5.53;0.90;;;;;;;14.54;86.12;101543.88;5092025;28;20539;-71
2022/07/11 05:51:02;;;;;;;1.53;1.00;;;;;;;14.59;86.01;101543.78;5092828;28;20480;-71
2022/07/11 05:53:28;;;;;;;2.70;0.80;;;;;;;14.64;86.34;101543.66;5092683;28;20484;-71
2022/07/11 05:55:55;;;;;;;3.93;1.63;;;;;;;14.71;85.81;101546.78;5090522;28;21048;-71
2022/07/11 05:58:23;;;;;;;2.17;1.10;;;;;;;14.75;85.83;101550.53;5092706;28;20563;-71
2022/07/11 06:00:50;;;;;;;1.73;0.70;;;;;;;14.71;86.97;101552.25;5091251;28;20548;-70
2022/07/11 06:03:16;;;;;;;2.70;1.33;;;;;;;14.81;87.19;101548.50;5092413;28;20495;-71
2022/07/11 06:05:43;;;;;;;1.10;0.73;;;;;;;14.89;85.93;101559.50;5092110;28;20531;-71
2022/07/11 06:10:53;;;;;;;2.00;0.93;;;;;;;15.08;85.35;101542.16;5089463;28;20651;-70
2022/07/11 06:13:20;;;;;;;2.97;1.27;;;;;;;15.16;85.29;101548.81;5094461;28;20564;-70
2022/07/11 06:15:48;;;;;;;1.40;0.77;;;;;;;15.28;85.05;101549.88;5095081;28;20812;-71
2022/07/11 06:18:16;;;;;;;7.53;1.30;;;;;;;15.42;84.78;101551.75;5093870;28;20476;-71
2022/07/11 06:20:42;;;;;;;1.60;0.73;;;;;;;15.50;84.38;101556.47;5096466;28;20474;-71
2022/07/11 06:23:09;;;;;;;1.07;0.80;;;;;;;15.49;85.00;101560.31;5094129;28;20517;-71
2022/07/11 06:25:36;;;;;;;3.27;0.80;;;;;;;15.57;84.33;101554.09;5095201;28;20882;-71
2022/07/11 06:28:02;;;;;;;1.77;0.70;;;;;;;15.67;84.42;101558.53;5095432;28;20550;-71
2022/07/11 06:30:30;;;;;;;0.90;0.60;;;;;;;15.67;83.83;101551.19;5096202;28;20440;-71
2022/07/11 06:32:59;;;;;;;2.60;0.70;;;;;;;15.66;85.08;101559.66;5094118;28;20677;-71
2022/07/11 06:35:25;;;;;;;1.87;1.20;;;;;;;15.78;83.97;101559.91;5096156;28;20516;-71
2022/07/11 06:37:52;;;;;;;2.03;0.93;;;;;;;15.86;84.75;101562.69;5094924;28;20480;-72
2022/07/11 06:40:19;;;;;;;4.13;1.30;;;;;;;15.91;84.25;101558.22;5096104;28;20449;-76
2022/07/11 06:42:46;;;;;;;2.30;0.90;;;;;;;16.00;82.74;101559.88;5094782;28;20472;-71
2022/07/11 06:45:12;;;;;;;1.37;0.93;;;;;;;16.00;83.07;101562.59;5094957;28;20440;-71
2022/07/11 06:47:39;;;;;;;1.47;0.90;;;;;;;16.08;83.92;101558.31;5094719;28;20502;-71
2022/07/11 06:50:08;;;;;;;1.57;1.20;;;;;;;16.11;84.00;101563.13;5095906;28;20440;-71
2022/07/11 06:52:35;;;;;;;2.00;0.90;;;;;;;16.14;83.77;101560.56;5094474;28;20448;-71
2022/07/11 06:55:02;;;;;;;1.13;0.80;;;;;;;16.04;83.35;101557.31;5095314;28;20492;-71
2022/07/11 06:57:28;;;;;;;1.87;0.93;;;;;;;16.16;83.22;101560.28;5094775;28;20480;-72
2022/07/11 06:59:55;;;;;;;1.20;0.80;;;;;;;16.26;83.20;101562.72;5087390;28;20492;-72
2022/07/11 07:02:27;;;;;;;1.47;0.70;;;;;;;16.37;83.74;101564.03;5094840;28;20977;-69
2022/07/11 07:04:54;;;;;;;0.87;0.70;;;;;;;16.49;82.80;101565.38;5095437;28;20436;-73
2022/07/11 07:07:22;;;;;;;1.37;0.97;;;;;;;16.57;81.93;101565.41;5094600;28;20480;-72
2022/07/11 07:09:49;;;;;;;2.80;0.93;;;;;;;16.65;81.57;101563.84;5095378;28;20447;-73
2022/07/11 07:12:15;;;;;;;6.13;1.57;;;;;;;16.74;81.46;101559.22;5094363;28;20472;-75
2022/07/11 07:14:42;;;;;;;2.03;0.80;;;;;;;16.78;80.75;101560.19;5092622;28;20470;-75
2022/07/11 07:17:09;;;;;;;1.43;0.80;;;;;;;16.83;82.23;101557.31;5094569;28;20456;-78
2022/07/11 07:19:35;;;;;;;3.00;1.43;;;;;;;16.89;82.38;101556.00;5095285;28;20961;-74
2022/07/11 07:22:02;;;;;;;3.90;1.10;;;;;;;16.96;80.67;101571.19;5093910;28;21033;-71
2022/07/11 07:24:30;;;;;;;2.13;1.50;;;;;;;17.04;79.75;101573.09;5094398;28;20524;-75
2022/07/11 07:26:57;;;;;;;4.97;1.33;;;;;;;17.02;79.62;101569.88;5093858;28;20507;-73
2022/07/11 07:29:25;;;;;;;1.10;0.70;;;;;;;17.04;79.86;101581.31;5095049;28;20449;-72
2022/07/11 07:31:52;;;;;;;4.83;1.40;;;;;;;17.06;80.36;101584.53;5093637;28;20571;-72
2022/07/11 07:34:19;;;;;;;3.43;0.73;;;;;;;17.15;80.29;101579.88;5095146;28;20448;-72
2022/07/11 07:36:46;;;;;;;4.93;1.43;;;;;;;17.28;79.68;101578.91;5093950;28;20460;-71
2022/07/11 07:39:12;;;;;;;1.10;0.70;;;;;;;17.35;79.49;101583.91;5094862;28;20579;-72
2022/07/11 07:41:40;;;;;;;3.13;0.83;;;;;;;17.47;78.66;101581.31;5093797;28;20469;-71
2022/07/11 07:44:07;;;;;;;1.10;0.73;;;;;;;17.53;79.15;101582.78;5094880;28;20471;-72
2022/07/11 07:46:34;;;;;;;4.67;1.57;;;;;;;17.64;78.33;101580.50;5093739;28;20440;-71
2022/07/11 07:49:00;;;;;;;2.93;1.40;;;;;;;17.74;77.95;101588.41;5094828;28;20436;-73
2022/07/11 07:51:27;;;;;;;1.33;0.77;;;;;;;17.77;77.18;101581.50;5093547;28;20512;-74
2022/07/11 07:53:54;;;;;;;1.10;0.70;;;;;;;17.87;77.54;101583.88;5094712;28;20907;-75
2022/07/11 07:56:21;;;;;;;2.13;0.80;;;;;;;17.96;76.32;101570.97;5086849;28;20488;-72
2022/07/11 07:58:51;;;;;;;1.13;0.80;;;;;;;17.94;76.71;101577.91;5090681;28;21072;-72
2022/07/11 08:01:35;;;;;;;3.50;0.97;;;;;;;17.84;75.85;101585.38;5092015;28;20484;-73
2022/07/11 08:04:01;;;;;;;4.90;1.37;;;;;;;18.00;75.82;101582.09;5087478;28;20456;-72
2022/07/11 08:06:28;;;;;;;1.40;0.80;;;;;;;18.22;75.55;101590.09;5094378;28;20882;-72
2022/07/11 08:08:55;;;;;;;3.40;1.30;;;;;;;18.34;74.44;101590.22;5092269;28;20548;-72
2022/07/11 08:11:21;;;;;;;5.20;1.00;;;;;;;18.27;74.08;101587.16;5094195;28;20594;-72
2022/07/11 08:13:49;;;;;;;5.07;1.03;;;;;;;18.22;74.67;101590.09;5094537;28;20527;-72
2022/07/11 08:16:16;;;;;;;1.93;0.90;;;;;;;18.33;74.67;101580.38;5094158;28;20534;-72
2022/07/11 08:18:43;;;;;;;1.30;0.80;;;;;;;18.37;74.01;101589.56;5094185;28;20486;-72
2022/07/11 08:21:10;;;;;;;1.87;0.73;;;;;;;18.45;75.10;101585.16;5093654;28;20958;-71
2022/07/11 08:23:37;;;;;;;0.77;0.50;;;;;;;18.59;74.70;101583.00;5093713;28;20874;-72
2022/07/11 08:26:04;;;;;;;6.40;1.20;;;;;;;18.77;73.14;101589.22;5093769;28;20468;-72
2022/07/11 08:28:31;;;;;;;2.07;1.13;;;;;;;18.88;72.22;101589.63;5093566;28;20517;-72
2022/07/11 08:30:59;;;;;;;1.37;0.70;;;;;;;18.92;70.18;101590.59;5093737;28;20531;-72
2022/07/11 08:33:26;;;;;;;12.73;1.10;;;;;;;18.91;69.42;101597.22;5093843;28;20532;-72
2022/07/11 08:35:52;;;;;;;4.23;0.83;;;;;;;18.80;71.78;101587.75;5092894;28;20878;-72
2022/07/11 08:38:19;;;;;;;3.03;0.90;;;;;;;18.95;72.60;101584.44;5093413;28;20483;-72
2022/07/11 08:40:45;;;;;;;4.73;0.53;;;;;;;18.97;72.20;101587.63;5093714;28;20591;-72
2022/07/11 08:43:15;;;;;;;4.23;0.80;;;;;;;19.08;70.24;101586.13;5093693;28;20555;-73
2022/07/11 08:45:42;;;;;;;1.80;0.80;;;;;;;19.00;70.94;101586.97;5093465;28;20817;-72
2022/07/11 08:48:10;;;;;;;2.23;1.07;;;;;;;18.95;71.73;101581.69;5093614;28;20937;-73
2022/07/11 08:50:37;;;;;;;5.30;1.37;;;;;;;19.08;72.18;101586.13;5093338;28;20968;-71
2022/07/11 08:53:04;;;;;;;1.40;0.80;;;;;;;19.23;69.33;101592.94;5093556;28;20492;-73
2022/07/11 08:55:32;;;;;;;1.87;0.87;;;;;;;19.16;69.52;101600.91;5093583;28;20448;-73
2022/07/11 08:57:59;;;;;;;13.93;1.30;;;;;;;19.00;70.01;101588.94;5093395;28;20530;-72
2022/07/11 09:00:26;;;;;;;1.60;0.80;;;;;;;19.03;70.94;101593.72;5093389;28;20445;-70
2022/07/11 09:02:54;;;;;;;3.17;0.70;;;;;;;19.19;70.02;101582.97;5093185;28;20475;-73
2022/07/11 09:05:23;;;;;;;0.90;0.70;;;;;;;19.28;69.25;101581.75;5093172;28;20941;-72
2022/07/11 09:07:50;;;;;;;1.17;0.60;;;;;;;19.31;68.58;101589.34;5093145;28;20817;-72
2022/07/11 09:10:18;;;;;;;3.93;0.70;;;;;;;19.37;69.09;101589.94;5093133;28;20938;-72
2022/07/11 09:13:00;;;;;;;1.17;0.93;;;;;;;19.46;68.48;101596.16;5093009;28;20543;-72
2022/07/11 09:15:34;;;;;;;1.30;0.83;;;;;;;19.39;68.63;101593.16;5093372;28;20431;-71
2022/07/11 09:18:01;;;;;;;1.10;0.87;;;;;;;19.32;67.59;101590.13;5092967;28;20487;-72
2022/07/11 09:25:19;;;;;;;4.87;0.63;;;;;;;19.25;67.22;101598.91;5093247;28;20476;-71
2022/07/11 09:26:05;;;;;;;3.80;1.10;;;;;;;19.27;66.48;101596.63;5092927;28;20444;-72
2022/07/11 09:28:32;;;;;;;0.83;0.67;;;;;;;19.35;70.00;101587.53;5093213;28;20475;-72
2022/07/11 09:30:58;;;;;;;1.80;0.90;;;;;;;19.48;67.72;101596.63;5093226;28;20441;-72
2022/07/11 09:33:25;;;;;;;1.20;0.80;;;;;;;19.44;66.70;101592.94;5092836;28;20539;-72
2022/07/11 09:35:54;;;;;;;2.40;0.70;;;;;;;19.40;65.73;101586.50;5093161;28;20471;-72
2022/07/11 09:38:22;;;;;;;1.77;0.83;;;;;;;19.52;63.83;101588.50;5093061;28;20495;-72
2022/07/11 09:40:49;;;;;;;2.30;0.63;;;;;;;19.61;61.41;101586.50;5093135;28;20436;-72
2022/07/11 09:43:25;;;;;;;0.87;0.50;;;;;;;19.75;65.19;101581.53;5093014;28;20480;-71
2022/07/11 09:45:52;;;;;;;0.83;0.60;;;;;;;19.96;64.15;101584.19;5093120;28;20504;-73
2022/07/11 09:48:19;;;;;;;0.97;0.70;;;;;;;20.17;62.23;101584.13;5096423;28;20527;-72
2022/07/11 09:51:00;;;;;;;0.70;0.40;;;;;;;20.28;62.00;101590.81;5097069;28;20889;-72
2022/07/11 09:53:26;;;;;;;0.80;0.50;;;;;;;20.27;61.26;101591.16;5096771;28;20897;-73
2022/07/11 09:55:53;;;;;;;1.50;0.70;;;;;;;20.09;61.25;101594.09;5096892;28;20440;-73
2022/07/11 09:58:22;;;;;;;2.90;0.80;;;;;;;20.10;62.00;101589.41;5096490;28;20852;-72
2022/07/11 10:00:50;;;;;;;1.07;0.60;;;;;;;20.25;62.48;101587.94;5096917;28;20527;-72
2022/07/11 10:03:17;;;;;;;2.13;0.57;;;;;;;20.47;63.02;101586.69;5097995;28;20985;-72
2022/07/11 10:05:43;;;;;;;2.40;0.60;;;;;;;20.59;60.63;101586.75;5096759;28;20535;-72
2022/07/11 10:08:12;;;;;;;2.10;1.03;;;;;;;20.66;62.15;101587.75;5096718;28;20483;-72
2022/07/11 10:10:38;;;;;;;1.23;0.50;;;;;;;20.62;62.30;101599.78;5096684;28;20444;-71
2022/07/11 10:13:05;;;;;;;1.13;0.60;;;;;;;20.53;59.44;101590.84;5096589;28;20460;-73
2022/07/11 10:15:34;;;;;;;1.67;0.63;;;;;;;20.50;58.98;101583.31;5096604;28;20524;-72
2022/07/11 10:18:10;;;;;;;2.63;0.60;;;;;;;20.60;62.70;101580.06;5096120;28;20540;-73
2022/07/11 10:20:43;;;;;;;0.90;0.43;;;;;;;20.79;56.88;101591.28;5096439;28;20793;-71
2022/07/11 10:23:19;;;;;;;0.90;0.60;;;;;;;20.95;59.70;101585.09;5096644;28;20547;-72
2022/07/11 10:25:51;;;;;;;0.90;0.63;;;;;;;21.02;57.50;101591.59;5096167;28;20420;-72
2022/07/11 10:28:25;;;;;;;7.30;0.70;;;;;;;20.85;59.30;101598.19;5096333;28;20494;-71
2022/07/11 10:30:55;;;;;;;5.03;0.80;;;;;;;20.62;58.91;101606.09;5096011;28;20849;-71
2022/07/11 10:33:23;;;;;;;1.03;0.70;;;;;;;20.51;58.42;101598.66;5096113;28;20464;-72
2022/07/11 10:35:51;;;;;;;0.60;0.40;;;;;;;20.58;59.12;101593.38;5096285;28;20557;-72
2022/07/11 10:38:20;;;;;;;0.87;0.60;;;;;;;20.81;60.17;101591.78;5096079;28;20519;-72
2022/07/11 10:40:49;;;;;;;1.10;0.60;;;;;;;21.10;58.42;101584.38;5095801;28;20483;-71
2022/07/11 10:43:34;;;;;;;1.30;0.63;;;;;;;21.20;57.42;101585.81;5095938;28;20551;-71
2022/07/11 10:46:02;;;;;;;1.63;0.60;;;;;;;21.24;56.85;101582.03;5095685;28;20890;-72
2022/07/11 10:48:31;;;;;;;1.93;0.50;;;;;;;21.17;53.53;101585.38;5095869;28;20519;-72
2022/07/11 10:51:09;;;;;;;0.90;0.53;;;;;;;21.19;53.16;101586.97;5095465;28;20523;-72
2022/07/11 10:53:42;;;;;;;0.90;0.40;;;;;;;21.28;52.60;101574.66;5095955;28;20449;-72
2022/07/11 10:56:32;;;;;;;1.90;0.80;;;;;;;21.41;53.81;101570.75;5095718;28;20444;-72
2022/07/11 10:59:08;;;;;;;1.10;0.67;;;;;;;21.73;53.75;101573.56;5094522;28;20475;-72
2022/07/11 11:01:35;;;;;;;1.23;0.50;;;;;;;21.95;51.71;101577.72;5095420;28;20487;-72
2022/07/11 11:04:35;;;;;;;1.27;0.63;;;;;;;22.07;51.59;101580.41;5095824;28;20867;-72
2022/07/11 11:07:02;;;;;;;0.90;0.50;;;;;;;22.19;52.22;101573.25;5088971;28;20550;-72
2022/07/11 11:09:40;;;;;;;0.80;0.40;;;;;;;22.45;49.70;101567.97;5095213;28;20934;-73
2022/07/11 11:12:06;;;;;;;1.00;0.60;;;;;;;22.60;48.25;101561.63;5095092;28;20480;-73
2022/07/11 11:14:33;;;;;;;0.90;0.40;;;;;;;22.83;48.29;101558.16;5095358;28;20512;-72
2022/07/11 11:17:33;;;;;;;1.03;0.50;;;;;;;22.67;49.86;101567.31;5095284;28;20535;-73
2022/07/11 11:20:00;;;;;;;0.70;0.50;;;;;;;22.65;48.62;101566.84;5095234;28;20480;-72
2022/07/11 11:22:28;;;;;;;1.00;0.57;;;;;;;22.81;48.83;101577.88;5094845;28;20993;-73
2022/07/11 11:24:57;;;;;;;10.50;0.70;;;;;;;22.48;49.08;101577.47;5095036;28;20440;-72
2022/07/11 11:27:26;;;;;;;0.73;0.40;;;;;;;22.86;50.70;101571.28;5095050;28;20475;-72
2022/07/11 11:29:55;;;;;;;3.83;0.90;;;;;;;23.47;47.27;101581.69;5094946;28;20456;-73
2022/07/11 11:32:23;;;;;;;1.43;0.97;;;;;;;23.90;46.07;101579.75;5094876;28;20973;-72
2022/07/11 11:34:50;;;;;;;2.03;0.70;;;;;;;24.46;43.69;101581.91;5095194;28;20970;-73